메인 페이지
METAR-TAF:

METAR-TAF

공항 :

이칼루이트, 누나부트, 캐나다

위도: 63-45N, 경도: 068-33W, 고도: 34m

현재 날씨관측

예보는 47분 전, 21:00시(UTC)에 발표되었습니다.
북북서14kt
온도 17°C
습도 45%
기압 1022 hPa
시정: 48.3km
고도 6000ft 상공 구름 조금

METAR: CYFB 222100Z 33014KT 30SM FEW060 17/05 A3017 RMK SC1 SLP221 DENSITY ALT 200FT

시각: 17:47 (21:47 UTC)

예보

예보는 4 시간 8분 전, 17:39시(UTC)에 발표되었습니다.
예보 대상 시간: 22일 18시부터 23일 18시까지 (UTC)
북북서15kt
시정: 10km
고도 10000ft 상공 구름 보통
일시적
22일 18시부터 22일 22시까지 (UTC)
고도 10000ft 상공 구름 많음
22일 2200시부터 (UTC)
서북서10kt
시정: 10km
고도 4000ft 상공 구름 보통
전환 중
23일 04시부터 23일 06시까지 (UTC)
여러 방향의 바람 3kt
23일 1400시부터 (UTC)
12kt
시정: 10km
고도 3000ft 상공 구름 많음

TAF: CYFB 221739Z 2218/2318 33015KT P6SM SCT100 TEMPO 2218/2222 BKN100 FM222200 30010KT P6SM SCT040 BECMG 2304/2306 VRB03KT FM231400 27012KT P6SM BKN030 RMK NXT FCST BY 230000Z

4,000개 이상의 공항 관측 자료 및 예보 (METAR 및 TAF 보고).

지도상에서 검색 가능한 기상관측소가 노란 점과 빨간 점으로 표시되어 있습니다.

기상관측소 명을 보려면 표시 위로 마우스를 이동하세요.

날씨 관측과 예보를 보려면 클릭하세요.

지도 변경 : 확대하려면 엑스 표시가 있는 녹색 버튼, 축소하려면 빼기 표시가 있는 녹색 버튼, 다음 페이지의 지도를 보려면 녹색 화살표를 클릭하세요.


METAR-TAF: